Weather at Stocker Private Airport

Public forecast

Using degrees Fahrenheit for public forecast. Weather courtesy of forecast.io.

Closest aviation weather report (METAR) to Stocker Private Airport

Closest report is Flying Cloud Airport, 11.6 nm (21.4 km) NE. Retrieved 2021/07/27 22:53 UTC (47 minutes ago):

KFCM 272253Z 22003KT 10SM CLR 32/23 A2993 RMK AO2 SLP128 T03220233

Closest aviation forecast (TAF) to Stocker Private Airport

Forecast is more than 12 hours old.

Closest forecast is Flying Cloud Airport, 11.6 nm (21.4 km) NE. Retrieved 2018/02/05 00:21 UTC (3 years ago):

TAF KFCM 052320Z 0600/0624 30007KT P6SM FEW200 FM061000 VRB03KT P6SM FEW250 FM061800 22006KT P6SM SCT100 BKN250 AMD NOT SKED